• Join FlightAware (Why Join?)
  • Login
  • US Flag 
01:52AM EDT


 

Airport Tracker/Info


-or-


 

Live Flight TrackerFlight Track Log ✈ AIP5031 ✈ 14-Jun-2014 ✈ KMSO - KBIL

Flight Track Log - Related Links

Times and Time Zones

All times are in EDT time to prevent confusion due to time zone crossing. See the AIP5031 flight status page for this flight to view local times or setup timezone preferences in your user account.

Time Position Orientation Groundspeed Altitude Reporting Facility
EDT Latitude Longitude Course Direction KTS MPH feet Rate Location/Type
04:22AM 46.9261 -114.1100 105° East 97 112 4,400  Level Salt Lake Center
04:23AM 46.9164 -114.1183 210° Southwest 132 152 6,300 2,280 Climbing Salt Lake Center
04:24AM 46.9044 -114.0469 104° East 150 173 9,100 2,520 Climbing Salt Lake Center
04:25AM 46.8886 -113.9794 109° East 171 197 11,400 2,040 Climbing Salt Lake Center
04:26AM 46.8422 -113.6645 101° East  Level Estimated
04:26AM 46.8750 -113.9117 106° East 176 203 13,300  Level Salt Lake Center
04:27AM 46.8267 -113.5795 105° East  Level FlightAware Approximate
04:27AM 46.8608 -113.8392 106° East 184 212 14,100  Level Salt Lake Center
04:28AM 46.8422 -113.7544 108° East 214 246 14,700 360 Climbing Salt Lake Center
04:29AM 46.8275 -113.6675 104° East 218 251 14,900 180 Climbing Salt Lake Center
04:30AM 46.8122 -113.5792 104° East 221 254 15,100  Climbing Salt Lake Center
04:31AM 46.7939 -113.4778 105° East 236 272 15,000  Descending Salt Lake Center
04:32AM 46.7822 -113.3864 101° East 233 268 15,100 -60 Climbing Salt Lake Center
04:33AM 46.7667 -113.2944 104° East 233 268 14,900  Descending Salt Lake Center
04:34AM 46.7533 -113.2072 103° East 237 273 15,100 60 Climbing Salt Lake Center
04:35AM 46.7350 -113.1133 106° East 239 275 15,100 -120 Level Salt Lake Center
04:36AM 46.7147 -113.0203 108° East 242 278 14,900  Descending Salt Lake Center
04:37AM 46.6956 -112.9286 107° East 241 277 15,100  Climbing Salt Lake Center
04:38AM 46.6786 -112.8356 105° East 239 275 14,900 -120 Descending Salt Lake Center
04:39AM 46.6592 -112.7422 107° East 238 274 14,900  Level Salt Lake Center
04:40AM 46.6431 -112.6497 104° East 239 275 15,000  Climbing Salt Lake Center
04:41AM 46.6317 -112.5556 100° East 238 274 15,000  Level Salt Lake Center
04:42AM 46.6156 -112.4617 104° East 239 275 15,000  Level Salt Lake Center
04:43AM 46.5975 -112.3692 106° East 239 275 15,000  Level Salt Lake Center
04:44AM 46.5794 -112.2747 106° East 240 276 15,000  Level Salt Lake Center
04:45AM 46.5606 -112.1783 106° East 245 282 15,000  Level Salt Lake Center
04:46AM 46.5431 -112.0803 105° East 247 284 15,000  Level Salt Lake Center
04:47AM 46.5233 -111.9844 107° East 248 285 15,000  Level Salt Lake Center
04:48AM 46.5019 -111.8897 108° East 249 287 15,000  Level Salt Lake Center
04:49AM 46.4781 -111.7961 110° East 248 285 15,100  Climbing Salt Lake Center
04:50AM 46.4575 -111.6992 107° East 248 285 15,000 -60 Descending Salt Lake Center
04:51AM 46.4350 -111.5828 106° East 253 291 15,000  Level Salt Lake Center
04:52AM 46.4167 -111.4942 107° East 249 287 15,000 -120 Level Salt Lake Center
04:53AM 46.3967 -111.3964 106° East 249 287 14,800  Descending Salt Lake Center
04:54AM 46.3772 -111.2983 106° East 249 287 15,000  Climbing Salt Lake Center
04:55AM 46.3642 -111.1981 101° East 249 287 14,800 -60 Descending Salt Lake Center
04:56AM 46.3514 -111.0975 100° East 249 287 14,900  Climbing Salt Lake Center
04:57AM 46.3308 -111.0072 108° East 250 288 14,800  Descending Salt Lake Center
04:58AM 46.3194 -110.9072 99° East 249 287 15,000  Climbing Salt Lake Center
04:59AM 46.2967 -110.8081 108° East 257 296 14,800  Descending Salt Lake Center
05:00AM 46.2800 -110.7067 103° East 257 296 15,000 120 Climbing Salt Lake Center
05:01AM 46.2586 -110.6100 108° East 257 296 15,100  Climbing Salt Lake Center
05:02AM 46.2406 -110.5139 105° East 255 293 15,100  Level Salt Lake Center
05:03AM 46.2150 -110.4211 112° Southeast 255 293 15,100 -60 Level Salt Lake Center
05:04AM 46.1878 -110.3333 114° Southeast 249 287 15,000  Descending Salt Lake Center
05:05AM 46.1658 -110.2447 110° East 241 277 15,100  Climbing Salt Lake Center
05:06AM 46.1536 -110.1500 101° East 240 276 15,000  Descending Salt Lake Center
05:07AM 46.1383 -110.0578 103° East 239 275 15,100  Climbing Salt Lake Center
05:08AM 46.1128 -109.9669 112° Southeast 241 277 15,100  Level Salt Lake Center
05:09AM 46.0936 -109.8750 107° East 241 277 15,100 -120 Level Salt Lake Center
05:10AM 46.0733 -109.7736 106° East 247 284 14,900 -300 Descending Salt Lake Center
05:11AM 46.0619 -109.6756 99° East 249 287 14,500 -600 Descending Salt Lake Center
05:12AM 46.0478 -109.5756 102° East 254 292 13,800 -780 Descending Salt Lake Center
05:13AM 46.0397 -109.4711 96° East 262 302 13,000 -720 Descending Salt Lake Center
05:14AM 46.0261 -109.3622 100° East 259 298 12,400 -480 Descending Salt Lake Center
05:15AM 46.0100 -109.2661 104° East 255 293 12,100 -300 Descending Salt Lake Center
05:16AM 45.9850 -109.1731 111° Southeast 252 290 11,800 -480 Descending Salt Lake Center
05:17AM 45.9561 -109.0806 114° Southeast 255 293 11,200 -780 Descending Salt Lake Center
05:18AM 45.9308 -108.9864 111° Southeast 256 295 10,300 -1,080 Descending Salt Lake Center
05:19AM 45.9083 -108.8936 109° East 254 292 9,100 -1,440 Descending Salt Lake Center
05:20AM 45.8803 -108.8036 114° Southeast 253 291 7,500 -1,560 Descending Salt Lake Center
05:21AM 45.8539 -108.7031 111° Southeast 253 291 6,000 -1,200 Descending Salt Lake Center
05:22AM 45.8336 -108.6303 112° Southeast 200 230 5,100 -960 Descending Salt Lake Center
05:23AM 45.8169 -108.5694 111° Southeast 174 200 4,100 -780 Descending Salt Lake Center
05:24AM 45.8019 -108.5300 119° Southeast 127 146 3,600 -540 Descending Salt Lake Center
05:26AM 45.8000 -108.5333 270° West  Level FlightAware Approximate